sensor_id;sensor_type;location;lat;lon;timestamp;temperature;humidity
29729;DHT22;20055;51.498;11.960;2022-10-16T00:00:41;16.20;99.90
29729;DHT22;20055;51.498;11.960;2022-10-16T00:03:08;16.20;99.90
29729;DHT22;20055;51.498;11.960;2022-10-16T00:05:40;16.20;99.90
29729;DHT22;20055;51.498;11.960;2022-10-16T00:08:07;16.20;99.90
29729;DHT22;20055;51.498;11.960;2022-10-16T00:10:34;17.10;99.90
29729;DHT22;20055;51.498;11.960;2022-10-16T00:13:00;16.30;99.90
29729;DHT22;20055;51.498;11.960;2022-10-16T00:15:27;16.60;99.90
29729;DHT22;20055;51.498;11.960;2022-10-16T00:17:53;16.50;99.90
29729;DHT22;20055;51.498;11.960;2022-10-16T00:20:19;16.40;99.90
29729;DHT22;20055;51.498;11.960;2022-10-16T00:23:04;16.60;99.90
29729;DHT22;20055;51.498;11.960;2022-10-16T00:25:32;16.60;99.90
29729;DHT22;20055;51.498;11.960;2022-10-16T00:28:02;16.70;99.90
29729;DHT22;20055;51.498;11.960;2022-10-16T00:30:28;16.70;99.90
29729;DHT22;20055;51.498;11.960;2022-10-16T00:32:55;16.60;99.90
29729;DHT22;20055;51.498;11.960;2022-10-16T00:35:22;16.50;99.90
29729;DHT22;20055;51.498;11.960;2022-10-16T00:37:48;16.50;99.90
29729;DHT22;20055;51.498;11.960;2022-10-16T00:40:14;16.60;99.90
29729;DHT22;20055;51.498;11.960;2022-10-16T00:42:41;16.60;99.90
29729;DHT22;20055;51.498;11.960;2022-10-16T00:45:08;16.50;99.90
29729;DHT22;20055;51.498;11.960;2022-10-16T00:47:40;16.40;99.90
29729;DHT22;20055;51.498;11.960;2022-10-16T00:50:11;16.40;99.90
29729;DHT22;20055;51.498;11.960;2022-10-16T00:52:43;16.60;99.90
29729;DHT22;20055;51.498;11.960;2022-10-16T00:55:10;15.90;99.90
29729;DHT22;20055;51.498;11.960;2022-10-16T00:57:37;16.10;99.90
29729;DHT22;20055;51.498;11.960;2022-10-16T01:00:06;16.20;99.90
29729;DHT22;20055;51.498;11.960;2022-10-16T01:02:33;15.80;99.90
29729;DHT22;20055;51.498;11.960;2022-10-16T01:04:59;15.90;99.90
29729;DHT22;20055;51.498;11.960;2022-10-16T01:10:31;16.10;99.90
29729;DHT22;20055;51.498;11.960;2022-10-16T01:13:05;17.70;99.90
29729;DHT22;20055;51.498;11.960;2022-10-16T01:15:54;16.10;99.90
29729;DHT22;20055;51.498;11.960;2022-10-16T01:18:34;15.60;99.90
29729;DHT22;20055;51.498;11.960;2022-10-16T01:21:06;15.90;99.90
29729;DHT22;20055;51.498;11.960;2022-10-16T01:23:36;15.80;99.90
29729;DHT22;20055;51.498;11.960;2022-10-16T01:31:34;15.80;99.90
29729;DHT22;20055;51.498;11.960;2022-10-16T01:34:18;15.40;99.90
29729;DHT22;20055;51.498;11.960;2022-10-16T01:36:52;15.50;99.90
29729;DHT22;20055;51.498;11.960;2022-10-16T01:39:22;15.30;99.90
29729;DHT22;20055;51.498;11.960;2022-10-16T01:41:56;15.10;99.90
29729;DHT22;20055;51.498;11.960;2022-10-16T01:44:30;15.90;99.90
29729;DHT22;20055;51.498;11.960;2022-10-16T01:46:58;15.30;99.90
29729;DHT22;20055;51.498;11.960;2022-10-16T01:49:27;15.70;99.90
29729;DHT22;20055;51.498;11.960;2022-10-16T01:51:58;15.70;99.90
29729;DHT22;20055;51.498;11.960;2022-10-16T01:54:27;14.90;99.90
29729;DHT22;20055;51.498;11.960;2022-10-16T01:56:55;15.40;99.90
29729;DHT22;20055;51.498;11.960;2022-10-16T01:59:24;15.00;99.90
29729;DHT22;20055;51.498;11.960;2022-10-16T02:01:57;15.30;99.90
29729;DHT22;20055;51.498;11.960;2022-10-16T02:04:36;15.50;99.90
29729;DHT22;20055;51.498;11.960;2022-10-16T02:07:03;15.50;99.90
29729;DHT22;20055;51.498;11.960;2022-10-16T02:09:33;15.60;99.90
29729;DHT22;20055;51.498;11.960;2022-10-16T02:12:06;16.00;99.90
29729;DHT22;20055;51.498;11.960;2022-10-16T02:14:38;15.30;99.90
29729;DHT22;20055;51.498;11.960;2022-10-16T02:17:12;17.30;99.90
29729;DHT22;20055;51.498;11.960;2022-10-16T02:19:39;15.30;99.90
29729;DHT22;20055;51.498;11.960;2022-10-16T02:22:07;15.40;99.90
29729;DHT22;20055;51.498;11.960;2022-10-16T02:24:42;15.30;99.90
29729;DHT22;20055;51.498;11.960;2022-10-16T02:27:27;15.20;99.90
29729;DHT22;20055;51.498;11.960;2022-10-16T02:30:19;15.00;99.90
29729;DHT22;20055;51.498;11.960;2022-10-16T02:32:48;14.70;99.90
29729;DHT22;20055;51.498;11.960;2022-10-16T02:35:18;15.60;99.90
29729;DHT22;20055;51.498;11.960;2022-10-16T02:37:47;15.20;99.90
29729;DHT22;20055;51.498;11.960;2022-10-16T02:40:15;15.20;99.90
29729;DHT22;20055;51.498;11.960;2022-10-16T02:42:43;15.00;99.90
29729;DHT22;20055;51.498;11.960;2022-10-16T02:45:10;14.90;99.90
29729;DHT22;20055;51.498;11.960;2022-10-16T02:47:37;15.10;99.90
29729;DHT22;20055;51.498;11.960;2022-10-16T02:50:04;15.10;99.90
29729;DHT22;20055;51.498;11.960;2022-10-16T02:52:30;15.20;99.90
29729;DHT22;20055;51.498;11.960;2022-10-16T02:54:56;14.80;99.90
29729;DHT22;20055;51.498;11.960;2022-10-16T02:57:22;15.00;99.90
29729;DHT22;20055;51.498;11.960;2022-10-16T02:59:49;15.00;99.90
29729;DHT22;20055;51.498;11.960;2022-10-16T03:02:15;14.70;99.90
29729;DHT22;20055;51.498;11.960;2022-10-16T03:04:41;14.80;99.90
29729;DHT22;20055;51.498;11.960;2022-10-16T03:07:07;14.80;99.90
29729;DHT22;20055;51.498;11.960;2022-10-16T03:09:34;14.70;99.90
29729;DHT22;20055;51.498;11.960;2022-10-16T03:12:00;14.80;99.90
29729;DHT22;20055;51.498;11.960;2022-10-16T03:14:26;14.50;99.90
29729;DHT22;20055;51.498;11.960;2022-10-16T03:16:52;14.70;99.90
29729;DHT22;20055;51.498;11.960;2022-10-16T03:19:19;14.70;99.90
29729;DHT22;20055;51.498;11.960;2022-10-16T03:21:45;15.20;99.90
29729;DHT22;20055;51.498;11.960;2022-10-16T03:24:11;16.10;99.90
29729;DHT22;20055;51.498;11.960;2022-10-16T03:26:38;15.20;99.90
29729;DHT22;20055;51.498;11.960;2022-10-16T03:29:04;14.70;99.90
29729;DHT22;20055;51.498;11.960;2022-10-16T03:31:31;14.80;99.90
29729;DHT22;20055;51.498;11.960;2022-10-16T03:33:57;14.60;99.90
29729;DHT22;20055;51.498;11.960;2022-10-16T03:36:23;14.90;99.90
29729;DHT22;20055;51.498;11.960;2022-10-16T03:38:49;14.90;99.90
29729;DHT22;20055;51.498;11.960;2022-10-16T03:41:16;15.00;99.90
29729;DHT22;20055;51.498;11.960;2022-10-16T03:43:42;14.50;99.90
29729;DHT22;20055;51.498;11.960;2022-10-16T03:46:08;14.60;99.90
29729;DHT22;20055;51.498;11.960;2022-10-16T03:48:35;14.80;99.90
29729;DHT22;20055;51.498;11.960;2022-10-16T03:51:01;14.70;99.90
29729;DHT22;20055;51.498;11.960;2022-10-16T03:53:27;14.70;99.90
29729;DHT22;20055;51.498;11.960;2022-10-16T03:55:53;14.40;99.90
29729;DHT22;20055;51.498;11.960;2022-10-16T03:58:19;14.60;99.90
29729;DHT22;20055;51.498;11.960;2022-10-16T04:00:46;14.90;99.90
29729;DHT22;20055;51.498;11.960;2022-10-16T04:03:13;14.60;99.90
29729;DHT22;20055;51.498;11.960;2022-10-16T04:05:40;14.60;99.90
29729;DHT22;20055;51.498;11.960;2022-10-16T04:08:06;14.30;99.90
29729;DHT22;20055;51.498;11.960;2022-10-16T04:10:32;14.60;99.90
29729;DHT22;20055;51.498;11.960;2022-10-16T04:12:58;14.80;99.90
29729;DHT22;20055;51.498;11.960;2022-10-16T04:15:25;15.10;99.90
29729;DHT22;20055;51.498;11.960;2022-10-16T04:17:52;14.80;99.90
29729;DHT22;20055;51.498;11.960;2022-10-16T04:20:18;14.20;99.90
29729;DHT22;20055;51.498;11.960;2022-10-16T04:22:44;14.80;99.90
29729;DHT22;20055;51.498;11.960;2022-10-16T04:25:11;14.60;99.90
29729;DHT22;20055;51.498;11.960;2022-10-16T04:27:38;15.10;99.90
29729;DHT22;20055;51.498;11.960;2022-10-16T04:30:05;15.30;99.90
29729;DHT22;20055;51.498;11.960;2022-10-16T04:32:31;15.00;99.90
29729;DHT22;20055;51.498;11.960;2022-10-16T04:34:58;15.00;99.90
29729;DHT22;20055;51.498;11.960;2022-10-16T04:37:25;14.80;99.90
29729;DHT22;20055;51.498;11.960;2022-10-16T04:39:52;15.40;99.90
29729;DHT22;20055;51.498;11.960;2022-10-16T04:42:19;14.80;99.90
29729;DHT22;20055;51.498;11.960;2022-10-16T04:44:45;15.00;99.90
29729;DHT22;20055;51.498;11.960;2022-10-16T04:47:12;15.10;99.90
29729;DHT22;20055;51.498;11.960;2022-10-16T04:49:38;15.40;99.90
29729;DHT22;20055;51.498;11.960;2022-10-16T04:52:05;14.90;99.90
29729;DHT22;20055;51.498;11.960;2022-10-16T04:54:31;15.00;99.90
29729;DHT22;20055;51.498;11.960;2022-10-16T04:56:57;15.40;99.90
29729;DHT22;20055;51.498;11.960;2022-10-16T04:59:23;14.70;99.90
29729;DHT22;20055;51.498;11.960;2022-10-16T05:01:49;15.40;99.90
29729;DHT22;20055;51.498;11.960;2022-10-16T05:04:16;15.10;99.90
29729;DHT22;20055;51.498;11.960;2022-10-16T05:06:42;14.90;99.90
29729;DHT22;20055;51.498;11.960;2022-10-16T05:09:09;14.70;99.90
29729;DHT22;20055;51.498;11.960;2022-10-16T05:11:35;14.90;99.90
29729;DHT22;20055;51.498;11.960;2022-10-16T05:14:02;14.90;99.90
29729;DHT22;20055;51.498;11.960;2022-10-16T05:16:29;14.80;99.90
29729;DHT22;20055;51.498;11.960;2022-10-16T05:18:56;15.20;99.90
29729;DHT22;20055;51.498;11.960;2022-10-16T05:21:22;14.70;99.90
29729;DHT22;20055;51.498;11.960;2022-10-16T05:23:48;14.90;99.90
29729;DHT22;20055;51.498;11.960;2022-10-16T05:26:15;14.80;99.90
29729;DHT22;20055;51.498;11.960;2022-10-16T05:28:41;14.30;99.90
29729;DHT22;20055;51.498;11.960;2022-10-16T05:31:08;15.00;99.90
29729;DHT22;20055;51.498;11.960;2022-10-16T05:33:35;15.10;99.90
29729;DHT22;20055;51.498;11.960;2022-10-16T05:36:05;15.60;99.90
29729;DHT22;20055;51.498;11.960;2022-10-16T05:38:37;15.70;99.90
29729;DHT22;20055;51.498;11.960;2022-10-16T05:41:04;16.20;99.90
29729;DHT22;20055;51.498;11.960;2022-10-16T05:43:31;15.90;99.90
29729;DHT22;20055;51.498;11.960;2022-10-16T05:46:03;15.90;99.90
29729;DHT22;20055;51.498;11.960;2022-10-16T05:48:30;16.10;99.90
29729;DHT22;20055;51.498;11.960;2022-10-16T05:51:01;15.90;99.90
29729;DHT22;20055;51.498;11.960;2022-10-16T05:53:30;15.80;99.90
29729;DHT22;20055;51.498;11.960;2022-10-16T05:55:57;16.30;99.90
29729;DHT22;20055;51.498;11.960;2022-10-16T05:58:24;16.00;99.90
29729;DHT22;20055;51.498;11.960;2022-10-16T06:00:54;14.90;99.90
29729;DHT22;20055;51.498;11.960;2022-10-16T06:03:21;15.60;99.90
29729;DHT22;20055;51.498;11.960;2022-10-16T06:05:47;16.80;99.90
29729;DHT22;20055;51.498;11.960;2022-10-16T06:08:13;16.00;99.90
29729;DHT22;20055;51.498;11.960;2022-10-16T06:10:39;15.60;99.90
29729;DHT22;20055;51.498;11.960;2022-10-16T06:13:06;15.40;99.90
29729;DHT22;20055;51.498;11.960;2022-10-16T06:15:32;15.50;99.90
29729;DHT22;20055;51.498;11.960;2022-10-16T06:17:58;15.60;99.90
29729;DHT22;20055;51.498;11.960;2022-10-16T06:20:24;15.50;99.90
29729;DHT22;20055;51.498;11.960;2022-10-16T06:22:50;15.40;99.90
29729;DHT22;20055;51.498;11.960;2022-10-16T06:25:16;15.90;99.90
29729;DHT22;20055;51.498;11.960;2022-10-16T06:27:43;15.20;99.90
29729;DHT22;20055;51.498;11.960;2022-10-16T06:30:09;15.50;99.90
29729;DHT22;20055;51.498;11.960;2022-10-16T06:32:36;15.80;99.90
29729;DHT22;20055;51.498;11.960;2022-10-16T06:35:02;16.00;99.90
29729;DHT22;20055;51.498;11.960;2022-10-16T06:37:28;15.40;99.90
29729;DHT22;20055;51.498;11.960;2022-10-16T06:39:54;16.00;99.90
29729;DHT22;20055;51.498;11.960;2022-10-16T06:42:21;15.50;99.90
29729;DHT22;20055;51.498;11.960;2022-10-16T06:44:47;15.40;99.90
29729;DHT22;20055;51.498;11.960;2022-10-16T06:47:13;16.00;99.90
29729;DHT22;20055;51.498;11.960;2022-10-16T06:49:40;15.10;99.90
29729;DHT22;20055;51.498;11.960;2022-10-16T06:52:06;15.30;99.90
29729;DHT22;20055;51.498;11.960;2022-10-16T06:54:32;15.90;99.90
29729;DHT22;20055;51.498;11.960;2022-10-16T06:56:59;15.60;99.90
29729;DHT22;20055;51.498;11.960;2022-10-16T06:59:25;15.70;99.90
29729;DHT22;20055;51.498;11.960;2022-10-16T07:01:52;15.70;99.90
29729;DHT22;20055;51.498;11.960;2022-10-16T07:04:18;15.70;99.90
29729;DHT22;20055;51.498;11.960;2022-10-16T07:06:44;16.20;99.90
29729;DHT22;20055;51.498;11.960;2022-10-16T07:09:11;16.40;99.90
29729;DHT22;20055;51.498;11.960;2022-10-16T07:11:39;16.60;99.90
29729;DHT22;20055;51.498;11.960;2022-10-16T07:14:12;16.20;99.90
29729;DHT22;20055;51.498;11.960;2022-10-16T07:16:40;16.50;99.90
29729;DHT22;20055;51.498;11.960;2022-10-16T07:19:07;16.70;99.90
29729;DHT22;20055;51.498;11.960;2022-10-16T07:21:34;16.80;99.90
29729;DHT22;20055;51.498;11.960;2022-10-16T07:24:06;16.50;99.90
29729;DHT22;20055;51.498;11.960;2022-10-16T07:26:35;16.90;99.90
29729;DHT22;20055;51.498;11.960;2022-10-16T07:29:02;16.70;99.90
29729;DHT22;20055;51.498;11.960;2022-10-16T07:31:29;17.10;99.90
29729;DHT22;20055;51.498;11.960;2022-10-16T07:33:58;17.20;99.90
29729;DHT22;20055;51.498;11.960;2022-10-16T07:36:25;16.40;99.90
29729;DHT22;20055;51.498;11.960;2022-10-16T07:38:52;17.60;99.90
29729;DHT22;20055;51.498;11.960;2022-10-16T07:41:19;16.90;99.90
29729;DHT22;20055;51.498;11.960;2022-10-16T07:43:50;17.30;99.90
29729;DHT22;20055;51.498;11.960;2022-10-16T07:46:18;16.90;99.90
29729;DHT22;20055;51.498;11.960;2022-10-16T07:48:44;17.70;99.90
29729;DHT22;20055;51.498;11.960;2022-10-16T07:51:16;17.60;99.90
29729;DHT22;20055;51.498;11.960;2022-10-16T07:53:42;17.70;99.90
29729;DHT22;20055;51.498;11.960;2022-10-16T07:56:09;18.10;99.90
29729;DHT22;20055;51.498;11.960;2022-10-16T07:58:36;17.30;99.90
29729;DHT22;20055;51.498;11.960;2022-10-16T08:01:08;17.20;99.90
29729;DHT22;20055;51.498;11.960;2022-10-16T08:03:34;18.30;99.90
29729;DHT22;20055;51.498;11.960;2022-10-16T08:06:01;17.90;99.90
29729;DHT22;20055;51.498;11.960;2022-10-16T08:08:29;18.20;99.90
29729;DHT22;20055;51.498;11.960;2022-10-16T08:10:55;18.20;99.90
29729;DHT22;20055;51.498;11.960;2022-10-16T08:13:22;18.50;99.90
29729;DHT22;20055;51.498;11.960;2022-10-16T08:15:48;18.40;99.90
29729;DHT22;20055;51.498;11.960;2022-10-16T08:18:15;18.50;99.90
29729;DHT22;20055;51.498;11.960;2022-10-16T08:20:43;19.20;99.90
29729;DHT22;20055;51.498;11.960;2022-10-16T08:23:11;18.70;99.90
29729;DHT22;20055;51.498;11.960;2022-10-16T08:25:39;18.90;99.90
29729;DHT22;20055;51.498;11.960;2022-10-16T08:28:08;19.00;99.90
29729;DHT22;20055;51.498;11.960;2022-10-16T08:30:35;19.20;99.90
29729;DHT22;20055;51.498;11.960;2022-10-16T08:33:02;18.80;99.90
29729;DHT22;20055;51.498;11.960;2022-10-16T08:35:29;19.30;99.90
29729;DHT22;20055;51.498;11.960;2022-10-16T08:37:55;19.50;99.90
29729;DHT22;20055;51.498;11.960;2022-10-16T08:40:26;19.10;99.90
29729;DHT22;20055;51.498;11.960;2022-10-16T08:45:42;19.40;99.90
29729;DHT22;20055;51.498;11.960;2022-10-16T08:50:44;19.40;99.90
29729;DHT22;20055;51.498;11.960;2022-10-16T08:53:17;19.30;99.90
29729;DHT22;20055;51.498;11.960;2022-10-16T08:55:49;19.60;99.90
29729;DHT22;20055;51.498;11.960;2022-10-16T08:58:18;19.40;99.90
29729;DHT22;20055;51.498;11.960;2022-10-16T09:00:48;19.40;99.90
29729;DHT22;20055;51.498;11.960;2022-10-16T09:11:57;19.20;99.90
29729;DHT22;20055;51.498;11.960;2022-10-16T09:17:45;19.50;99.90
29729;DHT22;20055;51.498;11.960;2022-10-16T09:23:10;20.00;99.90
29729;DHT22;20055;51.498;11.960;2022-10-16T09:25:40;19.10;99.90
29729;DHT22;20055;51.498;11.960;2022-10-16T09:28:09;19.50;99.90
29729;DHT22;20055;51.498;11.960;2022-10-16T09:30:37;20.40;99.90
29729;DHT22;20055;51.498;11.960;2022-10-16T09:33:05;19.30;99.90
29729;DHT22;20055;51.498;11.960;2022-10-16T09:35:38;20.30;99.90
29729;DHT22;20055;51.498;11.960;2022-10-16T09:38:06;19.90;99.90
29729;DHT22;20055;51.498;11.960;2022-10-16T09:40:37;20.70;99.90
29729;DHT22;20055;51.498;11.960;2022-10-16T09:43:25;19.80;99.90
29729;DHT22;20055;51.498;11.960;2022-10-16T09:46:08;20.30;99.90
29729;DHT22;20055;51.498;11.960;2022-10-16T09:48:48;20.30;99.90
29729;DHT22;20055;51.498;11.960;2022-10-16T09:51:32;20.20;99.90
29729;DHT22;20055;51.498;11.960;2022-10-16T09:54:13;21.00;99.90
29729;DHT22;20055;51.498;11.960;2022-10-16T09:56:40;20.70;99.90
29729;DHT22;20055;51.498;11.960;2022-10-16T09:59:15;21.30;99.90
29729;DHT22;20055;51.498;11.960;2022-10-16T10:01:47;20.40;99.90
29729;DHT22;20055;51.498;11.960;2022-10-16T10:04:14;20.70;99.90
29729;DHT22;20055;51.498;11.960;2022-10-16T10:06:45;20.70;99.90
29729;DHT22;20055;51.498;11.960;2022-10-16T10:09:19;20.70;99.90
29729;DHT22;20055;51.498;11.960;2022-10-16T10:11:52;20.30;99.90
29729;DHT22;20055;51.498;11.960;2022-10-16T10:14:38;20.70;99.90
29729;DHT22;20055;51.498;11.960;2022-10-16T10:19:40;20.80;99.90
29729;DHT22;20055;51.498;11.960;2022-10-16T10:33:33;20.30;99.90
29729;DHT22;20055;51.498;11.960;2022-10-16T10:39:30;20.60;99.90
29729;DHT22;20055;51.498;11.960;2022-10-16T10:42:28;20.60;99.90
29729;DHT22;20055;51.498;11.960;2022-10-16T10:45:18;21.10;99.90
29729;DHT22;20055;51.498;11.960;2022-10-16T10:50:47;20.80;99.90
29729;DHT22;20055;51.498;11.960;2022-10-16T10:53:24;20.60;99.90
29729;DHT22;20055;51.498;11.960;2022-10-16T10:56:40;20.70;99.90
29729;DHT22;20055;51.498;11.960;2022-10-16T10:59:12;20.70;99.90
29729;DHT22;20055;51.498;11.960;2022-10-16T11:01:57;20.60;99.90
29729;DHT22;20055;51.498;11.960;2022-10-16T11:04:49;20.50;99.90
29729;DHT22;20055;51.498;11.960;2022-10-16T11:07:34;20.60;99.90
29729;DHT22;20055;51.498;11.960;2022-10-16T11:10:15;20.90;99.90
29729;DHT22;20055;51.498;11.960;2022-10-16T11:12:46;20.90;99.90
29729;DHT22;20055;51.498;11.960;2022-10-16T11:15:14;21.20;99.90
29729;DHT22;20055;51.498;11.960;2022-10-16T11:17:46;20.60;99.90
29729;DHT22;20055;51.498;11.960;2022-10-16T11:20:21;21.00;99.90
29729;DHT22;20055;51.498;11.960;2022-10-16T11:22:56;20.60;99.90
29729;DHT22;20055;51.498;11.960;2022-10-16T11:25:30;20.60;99.90
29729;DHT22;20055;51.498;11.960;2022-10-16T11:30:46;20.50;99.90
29729;DHT22;20055;51.498;11.960;2022-10-16T11:33:38;20.30;99.90
29729;DHT22;20055;51.498;11.960;2022-10-16T11:41:35;20.60;99.90
29729;DHT22;20055;51.498;11.960;2022-10-16T11:46:38;20.90;99.90
29729;DHT22;20055;51.498;11.960;2022-10-16T11:49:19;20.20;99.90
29729;DHT22;20055;51.498;11.960;2022-10-16T11:52:12;20.40;99.90
29729;DHT22;20055;51.498;11.960;2022-10-16T11:54:52;20.60;99.90
29729;DHT22;20055;51.498;11.960;2022-10-16T12:06:04;21.60;99.90
29729;DHT22;20055;51.498;11.960;2022-10-16T12:08:33;21.90;99.90
29729;DHT22;20055;51.498;11.960;2022-10-16T12:11:09;21.50;99.90
29729;DHT22;20055;51.498;11.960;2022-10-16T12:13:40;21.30;99.90
29729;DHT22;20055;51.498;11.960;2022-10-16T12:16:20;20.90;99.90
29729;DHT22;20055;51.498;11.960;2022-10-16T12:18:48;20.30;99.90
29729;DHT22;20055;51.498;11.960;2022-10-16T12:21:16;20.30;99.90
29729;DHT22;20055;51.498;11.960;2022-10-16T12:23:53;20.60;99.90
29729;DHT22;20055;51.498;11.960;2022-10-16T12:26:28;21.00;99.90
29729;DHT22;20055;51.498;11.960;2022-10-16T12:29:08;20.30;99.90
29729;DHT22;20055;51.498;11.960;2022-10-16T12:31:44;20.90;99.90
29729;DHT22;20055;51.498;11.960;2022-10-16T12:36:49;20.90;99.90
29729;DHT22;20055;51.498;11.960;2022-10-16T12:39:23;21.00;99.90
29729;DHT22;20055;51.498;11.960;2022-10-16T12:42:30;21.40;99.90
29729;DHT22;20055;51.498;11.960;2022-10-16T12:44:56;21.30;99.90
29729;DHT22;20055;51.498;11.960;2022-10-16T12:47:36;21.20;99.90
29729;DHT22;20055;51.498;11.960;2022-10-16T12:50:21;21.20;99.90
29729;DHT22;20055;51.498;11.960;2022-10-16T12:52:48;21.20;99.90
29729;DHT22;20055;51.498;11.960;2022-10-16T12:55:20;21.20;99.90
29729;DHT22;20055;51.498;11.960;2022-10-16T13:00:35;21.30;99.90
29729;DHT22;20055;51.498;11.960;2022-10-16T13:03:33;21.30;99.90
29729;DHT22;20055;51.498;11.960;2022-10-16T13:06:30;20.90;99.90
29729;DHT22;20055;51.498;11.960;2022-10-16T13:09:33;20.50;99.90
29729;DHT22;20055;51.498;11.960;2022-10-16T13:12:13;20.70;99.90
29729;DHT22;20055;51.498;11.960;2022-10-16T13:18:08;20.60;99.90
29729;DHT22;20055;51.498;11.960;2022-10-16T13:23:38;19.80;99.90
29729;DHT22;20055;51.498;11.960;2022-10-16T13:26:41;20.90;99.90
29729;DHT22;20055;51.498;11.960;2022-10-16T13:29:10;20.20;99.90
29729;DHT22;20055;51.498;11.960;2022-10-16T13:31:38;20.60;99.90
29729;DHT22;20055;51.498;11.960;2022-10-16T13:34:05;20.60;99.90
29729;DHT22;20055;51.498;11.960;2022-10-16T13:36:47;20.80;99.90
29729;DHT22;20055;51.498;11.960;2022-10-16T13:39:23;20.60;99.90
29729;DHT22;20055;51.498;11.960;2022-10-16T13:42:13;20.70;99.90
29729;DHT22;20055;51.498;11.960;2022-10-16T13:44:41;20.40;99.90
29729;DHT22;20055;51.498;11.960;2022-10-16T13:47:23;20.10;99.90
29729;DHT22;20055;51.498;11.960;2022-10-16T13:50:18;20.50;99.90
29729;DHT22;20055;51.498;11.960;2022-10-16T13:52:45;20.50;99.90
29729;DHT22;20055;51.498;11.960;2022-10-16T13:55:15;20.30;99.90
29729;DHT22;20055;51.498;11.960;2022-10-16T13:57:42;20.60;99.90
29729;DHT22;20055;51.498;11.960;2022-10-16T14:00:23;20.50;99.90
29729;DHT22;20055;51.498;11.960;2022-10-16T14:03:00;20.70;99.90
29729;DHT22;20055;51.498;11.960;2022-10-16T14:05:27;20.60;99.90
29729;DHT22;20055;51.498;11.960;2022-10-16T14:07:54;20.00;99.90
29729;DHT22;20055;51.498;11.960;2022-10-16T14:10:28;21.30;99.90
29729;DHT22;20055;51.498;11.960;2022-10-16T14:13:01;20.70;99.90
29729;DHT22;20055;51.498;11.960;2022-10-16T14:15:30;21.00;99.90
29729;DHT22;20055;51.498;11.960;2022-10-16T14:17:58;20.40;99.90
29729;DHT22;20055;51.498;11.960;2022-10-16T14:20:29;20.80;99.90
29729;DHT22;20055;51.498;11.960;2022-10-16T14:23:01;20.80;99.90
29729;DHT22;20055;51.498;11.960;2022-10-16T14:25:30;21.60;99.90
29729;DHT22;20055;51.498;11.960;2022-10-16T14:30:35;20.70;99.90
29729;DHT22;20055;51.498;11.960;2022-10-16T14:33:05;21.20;99.90
29729;DHT22;20055;51.498;11.960;2022-10-16T14:35:37;21.00;99.90
29729;DHT22;20055;51.498;11.960;2022-10-16T14:38:05;21.10;99.90
29729;DHT22;20055;51.498;11.960;2022-10-16T14:40:34;21.20;99.90
29729;DHT22;20055;51.498;11.960;2022-10-16T14:43:03;21.30;99.90
29729;DHT22;20055;51.498;11.960;2022-10-16T14:45:33;21.10;99.90
29729;DHT22;20055;51.498;11.960;2022-10-16T14:48:02;21.10;99.90
29729;DHT22;20055;51.498;11.960;2022-10-16T14:50:30;21.00;99.90
29729;DHT22;20055;51.498;11.960;2022-10-16T14:52:56;21.30;99.90
29729;DHT22;20055;51.498;11.960;2022-10-16T14:55:24;21.00;99.90
29729;DHT22;20055;51.498;11.960;2022-10-16T14:57:51;21.10;99.90
29729;DHT22;20055;51.498;11.960;2022-10-16T15:00:23;20.90;99.90
29729;DHT22;20055;51.498;11.960;2022-10-16T15:02:50;20.90;99.90
29729;DHT22;20055;51.498;11.960;2022-10-16T15:05:22;21.10;99.90
29729;DHT22;20055;51.498;11.960;2022-10-16T15:07:50;21.10;99.90
29729;DHT22;20055;51.498;11.960;2022-10-16T15:10:18;21.10;99.90
29729;DHT22;20055;51.498;11.960;2022-10-16T15:12:45;21.00;99.90
29729;DHT22;20055;51.498;11.960;2022-10-16T15:17:50;21.50;99.90
29729;DHT22;20055;51.498;11.960;2022-10-16T15:20:27;21.30;99.90
29729;DHT22;20055;51.498;11.960;2022-10-16T15:22:53;21.30;99.90
29729;DHT22;20055;51.498;11.960;2022-10-16T15:25:38;21.30;99.90
29729;DHT22;20055;51.498;11.960;2022-10-16T15:28:08;20.90;99.90
29729;DHT22;20055;51.498;11.960;2022-10-16T15:30:36;20.80;99.90
29729;DHT22;20055;51.498;11.960;2022-10-16T15:33:03;20.70;99.90
29729;DHT22;20055;51.498;11.960;2022-10-16T15:35:30;20.60;99.90
29729;DHT22;20055;51.498;11.960;2022-10-16T15:37:56;20.30;99.90
29729;DHT22;20055;51.498;11.960;2022-10-16T15:40:23;20.50;99.90
29729;DHT22;20055;51.498;11.960;2022-10-16T15:42:49;19.80;99.90
29729;DHT22;20055;51.498;11.960;2022-10-16T15:45:16;20.80;99.90
29729;DHT22;20055;51.498;11.960;2022-10-16T15:47:43;20.30;99.90
29729;DHT22;20055;51.498;11.960;2022-10-16T15:50:11;20.30;99.90
29729;DHT22;20055;51.498;11.960;2022-10-16T15:52:38;20.30;99.90
29729;DHT22;20055;51.498;11.960;2022-10-16T15:55:09;20.60;99.90
29729;DHT22;20055;51.498;11.960;2022-10-16T15:57:36;20.50;99.90
29729;DHT22;20055;51.498;11.960;2022-10-16T16:00:12;20.20;99.90
29729;DHT22;20055;51.498;11.960;2022-10-16T16:02:40;20.20;99.90
29729;DHT22;20055;51.498;11.960;2022-10-16T16:05:07;20.40;99.90
29729;DHT22;20055;51.498;11.960;2022-10-16T16:07:35;20.10;99.90
29729;DHT22;20055;51.498;11.960;2022-10-16T16:10:03;20.70;99.90
29729;DHT22;20055;51.498;11.960;2022-10-16T16:12:30;20.10;99.90
29729;DHT22;20055;51.498;11.960;2022-10-16T16:14:56;19.90;99.90
29729;DHT22;20055;51.498;11.960;2022-10-16T16:17:22;19.90;99.90
29729;DHT22;20055;51.498;11.960;2022-10-16T16:19:50;19.90;99.90
29729;DHT22;20055;51.498;11.960;2022-10-16T16:22:17;19.90;99.90
29729;DHT22;20055;51.498;11.960;2022-10-16T16:24:43;19.80;99.90
29729;DHT22;20055;51.498;11.960;2022-10-16T16:27:10;20.20;99.90
29729;DHT22;20055;51.498;11.960;2022-10-16T16:29:36;19.80;99.90
29729;DHT22;20055;51.498;11.960;2022-10-16T16:32:03;19.60;99.90
29729;DHT22;20055;51.498;11.960;2022-10-16T16:34:29;21.40;99.90
29729;DHT22;20055;51.498;11.960;2022-10-16T16:36:56;19.20;99.90
29729;DHT22;20055;51.498;11.960;2022-10-16T16:39:23;18.90;99.90
29729;DHT22;20055;51.498;11.960;2022-10-16T16:41:49;19.50;99.90
29729;DHT22;20055;51.498;11.960;2022-10-16T16:44:16;19.20;99.90
29729;DHT22;20055;51.498;11.960;2022-10-16T16:46:46;19.40;99.90
29729;DHT22;20055;51.498;11.960;2022-10-16T16:49:14;19.00;99.90
29729;DHT22;20055;51.498;11.960;2022-10-16T16:51:41;19.40;99.90
29729;DHT22;20055;51.498;11.960;2022-10-16T16:54:09;19.30;99.90
29729;DHT22;20055;51.498;11.960;2022-10-16T16:56:36;18.90;99.90
29729;DHT22;20055;51.498;11.960;2022-10-16T16:59:02;18.80;99.90